Time;durP1;ratioP1;P1;durP2;ratioP2;P2;SDS_P1;SDS_P2;PMS_P1;PMS_P2;Temp;Humidity;BMP_temperature;BMP_pressure;BME280_temperature;BME280_humidity;BME280_pressure;Samples;Min_cycle;Max_cycle;Signal;HPM_P1;HPM_P2
2022/09/07 00:00:14;;;;;;;;;3.25;2.50;;;;;23.15;57.67;100938.09;4906306;29;45371;-80
2022/09/07 00:02:39;;;;;;;;;2.00;2.00;;;;;23.08;57.46;100921.41;4897829;29;45486;-80
2022/09/07 00:05:05;;;;;;;;;2.00;2.00;;;;;23.09;57.41;100925.00;4882332;29;47122;-80
2022/09/07 00:07:30;;;;;;;;;3.00;2.00;;;;;23.11;57.32;100936.63;4905719;29;45347;-80
2022/09/07 00:09:56;;;;;;;;;2.00;2.00;;;;;22.98;57.60;100914.09;4903881;29;45451;-80
2022/09/07 00:12:21;;;;;;;;;4.00;4.00;;;;;23.02;57.48;100929.19;4894832;29;45922;-80
2022/09/07 00:14:46;;;;;;;;;3.00;3.00;;;;;23.01;57.93;100928.31;4901263;29;45547;-83
2022/09/07 00:17:12;;;;;;;;;2.75;2.00;;;;;23.03;57.66;100936.38;4901148;29;45382;-83
2022/09/07 00:19:37;;;;;;;;;2.50;2.50;;;;;23.03;58.15;100933.66;4905965;29;45411;-84
2022/09/07 00:22:02;;;;;;;;;4.00;2.25;;;;;22.97;58.39;100932.31;4905169;29;45446;-83
2022/09/07 00:24:28;;;;;;;;;3.00;3.00;;;;;22.99;58.21;100941.19;4882234;29;46598;-80
2022/09/07 00:26:55;;;;;;;;;3.25;3.00;;;;;22.96;57.99;100937.88;4880264;29;45440;-80
2022/09/07 00:29:21;;;;;;;;;3.00;3.00;;;;;22.93;57.85;100937.09;4899365;29;45311;-80
2022/09/07 00:31:46;;;;;;;;;2.25;2.25;;;;;22.90;58.24;100941.94;4898122;29;45309;-80
2022/09/07 00:34:12;;;;;;;;;4.50;4.00;;;;;22.89;58.44;100938.34;4899805;29;45510;-80
2022/09/07 00:36:37;;;;;;;;;1.00;1.00;;;;;22.88;58.65;100938.47;4903280;29;45346;-80
2022/09/07 00:39:03;;;;;;;;;3.00;3.00;;;;;22.82;58.86;100934.41;4893024;29;45576;-80
2022/09/07 00:41:29;;;;;;;;;4.00;3.00;;;;;22.79;58.55;100920.16;4903603;28;45332;-80
2022/09/07 00:44:56;;;;;;;;;4.25;3.25;;;;;22.86;58.80;100932.31;4898602;29;46114;-80
2022/09/07 00:47:26;;;;;;;;;1.00;1.00;;;;;22.82;58.44;100931.69;4810623;29;45454;-80
2022/09/07 00:49:58;;;;;;;;;4.25;2.75;;;;;22.74;58.64;100921.41;4820343;29;45456;-80
2022/09/07 00:52:26;;;;;;;;;2.00;2.00;;;;;22.78;58.78;100932.06;4865476;29;45278;-80
2022/09/07 00:55:00;;;;;;;;;3.75;3.00;;;;;22.71;58.81;100920.81;4904152;29;46007;-80
2022/09/07 00:57:27;;;;;;;;;4.00;2.25;;;;;22.75;58.63;100931.31;4888404;29;46081;-80
2022/09/07 00:59:54;;;;;;;;;3.00;3.00;;;;;22.70;58.97;100924.50;4906043;29;45487;-84
2022/09/07 01:02:20;;;;;;;;;2.25;2.25;;;;;22.67;58.87;100928.34;4896701;29;45470;-84
2022/09/07 01:04:49;;;;;;;;;1.50;1.25;;;;;22.68;58.85;100926.50;4904773;29;46012;-80
2022/09/07 01:07:15;;;;;;;;;3.00;2.00;;;;;22.69;58.87;100931.81;4900327;29;45322;-80
2022/09/07 01:09:41;;;;;;;;;3.50;3.50;;;;;22.67;58.95;100930.19;4893374;29;45628;-80
2022/09/07 01:12:07;;;;;;;;;3.75;3.00;;;;;22.66;58.94;100928.47;4903431;29;45421;-84
2022/09/07 01:14:38;;;;;;;;;4.75;3.50;;;;;22.63;59.02;100924.13;4904711;29;45455;-84
2022/09/07 01:17:27;;;;;;;;;4.50;3.75;;;;;22.62;58.99;100935.13;4895352;29;45506;-83
2022/09/07 01:20:15;;;;;;;;;2.00;2.00;;;;;22.63;59.25;100935.00;4886534;29;45373;-84
2022/09/07 01:23:12;;;;;;;;;2.00;1.75;;;;;22.61;59.56;100934.28;4905923;29;45780;-84
2022/09/07 01:26:00;;;;;;;;;3.25;3.00;;;;;22.55;59.79;100927.50;4883767;29;47339;-84
2022/09/07 01:28:27;;;;;;;;;3.00;3.00;;;;;22.62;59.78;100938.75;4905487;29;45461;-83
2022/09/07 01:31:40;;;;;;;;;5.50;4.00;;;;;22.61;59.75;100926.13;4878939;29;45393;-83
2022/09/07 01:34:24;;;;;;;;;4.00;4.00;;;;;22.58;59.31;100926.34;4872780;29;45248;-84
2022/09/07 01:37:04;;;;;;;;;1.50;0.75;;;;;22.56;59.04;100921.03;4892224;29;45757;-84
2022/09/07 01:39:39;;;;;;;;;2.25;2.25;;;;;22.60;59.64;100921.66;4908397;29;44840;-83
2022/09/07 01:42:11;;;;;;;;;8.50;5.25;;;;;22.48;59.97;100898.16;4905112;28;45281;-80
2022/09/07 01:44:44;;;;;;;;;4.00;4.00;;;;;22.58;59.58;100919.06;4901747;29;45254;-83
2022/09/07 01:47:30;;;;;;;;;3.00;3.00;;;;;22.56;59.43;100918.31;4902038;29;46342;-83
2022/09/07 01:50:13;;;;;;;;;2.50;2.50;;;;;22.49;58.97;100917.09;4889232;29;45416;-84
2022/09/07 01:52:55;;;;;;;;;2.25;2.00;;;;;22.54;59.22;100925.75;4887669;29;45421;-84
2022/09/07 01:55:35;;;;;;;;;2.25;2.25;;;;;22.47;58.88;100912.75;4905453;29;45188;-84
2022/09/07 01:58:07;;;;;;;;;1.75;1.25;;;;;22.49;58.75;100922.53;4907491;29;46096;-80
2022/09/07 02:00:34;;;;;;;;;3.00;2.50;;;;;22.38;59.02;100898.03;4907270;29;45395;-80
2022/09/07 02:03:09;;;;;;;;;1.50;1.50;;;;;22.44;59.18;100919.31;4892411;29;45437;-80
2022/09/07 02:05:57;;;;;;;;;2.00;2.00;;;;;22.44;58.87;100915.72;4892365;29;45562;-80
2022/09/07 02:08:31;;;;;;;;;2.00;1.25;;;;;22.43;58.72;100914.84;4901527;29;46062;-84
2022/09/07 02:11:03;;;;;;;;;1.50;1.50;;;;;22.42;58.36;100920.41;4895214;29;45386;-84
2022/09/07 02:13:36;;;;;;;;;2.00;2.00;;;;;22.39;58.45;100916.09;4908121;29;45219;-83
2022/09/07 02:16:27;;;;;;;;;2.50;2.50;;;;;22.35;58.41;100912.75;4901197;29;45461;-81
2022/09/07 02:19:07;;;;;;;;;4.50;2.25;;;;;22.29;58.73;100896.06;4896981;29;45721;-80
2022/09/07 02:21:37;;;;;;;;;3.00;3.00;;;;;22.28;58.62;100897.91;4899135;28;45297;-80
2022/09/07 02:24:10;;;;;;;;;2.50;2.50;;;;;22.31;58.48;100905.81;4907640;29;45321;-80
2022/09/07 02:26:39;;;;;;;;;3.00;3.00;;;;;22.30;58.60;100908.66;4890870;29;45660;-80
2022/09/07 02:29:06;;;;;;;;;3.75;1.75;;;;;22.25;58.64;100905.41;4890478;29;47764;-80
2022/09/07 02:31:31;;;;;;;;;4.75;3.00;;;;;22.25;58.56;100908.13;4905718;29;45381;-80
2022/09/07 02:33:59;;;;;;;;;2.00;1.25;;;;;22.24;58.69;100896.38;4906049;29;45345;-80
2022/09/07 02:36:28;;;;;;;;;2.00;1.00;;;;;22.24;58.71;100898.25;4906674;29;45560;-80
2022/09/07 02:38:53;;;;;;;;;2.50;1.00;;;;;22.25;58.96;100905.41;4876979;29;47360;-80
2022/09/07 02:41:29;;;;;;;;;1.75;1.75;;;;;22.19;58.53;100904.03;4893347;28;45389;-80
2022/09/07 02:43:55;;;;;;;;;3.00;3.00;;;;;22.19;58.52;100899.47;4907264;29;45347;-80
2022/09/07 02:46:36;;;;;;;;;2.00;2.00;;;;;22.23;58.70;100902.81;4889915;29;45209;-80
2022/09/07 02:49:19;;;;;;;;;3.00;2.00;;;;;22.23;58.77;100910.09;4906611;29;46174;-84
2022/09/07 02:52:03;;;;;;;;;5.00;3.00;;;;;22.11;58.31;100896.47;4877514;29;45631;-84
2022/09/07 02:54:52;;;;;;;;;1.75;1.75;;;;;22.04;58.37;100889.81;4896418;29;44776;-84
2022/09/07 02:57:56;;;;;;;;;1.00;1.00;;;;;22.12;58.44;100905.50;4873665;29;45292;-80
2022/09/07 03:00:24;;;;;;;;;1.00;1.00;;;;;22.09;58.70;100903.03;4888840;29;45693;-80
2022/09/07 03:03:08;;;;;;;;;2.00;1.75;;;;;22.08;58.53;100909.44;4906636;29;45387;-80
2022/09/07 03:06:00;;;;;;;;;3.00;3.00;;;;;22.05;58.99;100917.84;4901475;29;45495;-80
2022/09/07 03:08:33;;;;;;;;;2.25;2.25;;;;;22.02;58.70;100919.81;4887335;29;45577;-80
2022/09/07 03:11:00;;;;;;;;;1.25;1.25;;;;;22.00;58.99;100913.66;4902910;29;46138;-80
2022/09/07 03:13:28;;;;;;;;;1.75;1.75;;;;;21.98;58.61;100914.72;4907052;29;45338;-80
2022/09/07 03:15:54;;;;;;;;;3.00;2.50;;;;;21.92;59.15;100902.50;4888417;29;45439;-80
2022/09/07 03:18:20;;;;;;;;;2.00;1.25;;;;;21.93;59.08;100909.66;4889805;29;45333;-80
2022/09/07 03:20:45;;;;;;;;;1.75;1.75;;;;;21.90;59.09;100915.34;4901616;29;45505;-80
2022/09/07 03:23:11;;;;;;;;;1.00;1.00;;;;;21.91;58.59;100914.34;4894403;29;45288;-80
2022/09/07 03:25:37;;;;;;;;;2.25;2.25;;;;;21.86;59.14;100912.97;4890681;29;45362;-80
2022/09/07 03:28:03;;;;;;;;;2.00;2.00;;;;;21.89;59.12;100919.03;4906863;29;45199;-80
2022/09/07 03:30:29;;;;;;;;;1.25;1.25;;;;;21.81;58.83;100918.75;4897687;29;46676;-80
2022/09/07 03:32:54;;;;;;;;;2.00;2.00;;;;;21.76;58.35;100915.53;4902233;29;45385;-80
2022/09/07 03:35:19;;;;;;;;;2.00;2.00;;;;;21.70;58.62;100903.31;4888451;29;45417;-80
2022/09/07 03:37:45;;;;;;;;;1.75;1.75;;;;;21.74;58.70;100920.22;4905514;29;45448;-80
2022/09/07 03:40:12;;;;;;;;;2.00;2.00;;;;;21.74;58.93;100909.38;4909246;29;45558;-80
2022/09/07 03:42:38;;;;;;;;;2.00;2.00;;;;;21.76;58.47;100929.13;4889814;29;45438;-80
2022/09/07 03:45:05;;;;;;;;;1.25;1.25;;;;;21.74;58.92;100926.53;4906809;29;45338;-80
2022/09/07 03:47:33;;;;;;;;;1.75;1.75;;;;;21.73;58.57;100926.63;4906636;29;45284;-84
2022/09/07 03:49:58;;;;;;;;;3.00;0.00;;;;;21.70;58.56;100935.00;4883145;29;46126;-84
2022/09/07 03:52:24;;;;;;;;;3.00;2.00;;;;;21.67;58.44;100932.53;4887155;29;45032;-84
2022/09/07 03:54:49;;;;;;;;;1.00;1.00;;;;;21.60;58.06;100929.41;4882180;29;45731;-84
2022/09/07 03:57:14;;;;;;;;;3.25;2.50;;;;;21.59;58.44;100928.56;4904406;29;45438;-84
2022/09/07 03:59:40;;;;;;;;;4.75;2.75;;;;;21.57;58.18;100930.53;4879059;29;47251;-84
2022/09/07 04:02:05;;;;;;;;;1.75;1.75;;;;;21.55;58.35;100927.06;4899100;29;45363;-84
2022/09/07 04:04:31;;;;;;;;;1.25;1.00;;;;;21.53;57.92;100933.59;4871189;29;45332;-84
2022/09/07 04:06:56;;;;;;;;;1.25;1.25;;;;;21.54;58.04;100933.47;4900058;29;44861;-84
2022/09/07 04:09:21;;;;;;;;;3.00;2.00;;;;;21.53;58.24;100941.72;4902475;29;45311;-84
2022/09/07 04:11:47;;;;;;;;;3.00;2.00;;;;;21.51;57.70;100951.84;4904376;29;45318;-84
2022/09/07 04:14:12;;;;;;;;;0.25;0.25;;;;;21.31;57.87;100931.59;4906484;29;45449;-84
2022/09/07 04:16:38;;;;;;;;;1.00;1.00;;;;;21.47;58.21;100967.50;4897192;29;45334;-84
2022/09/07 04:19:04;;;;;;;;;7.25;5.00;;;;;21.44;58.08;100973.13;4887052;29;45578;-84
2022/09/07 04:21:31;;;;;;;;;3.00;3.00;;;;;21.40;58.44;100967.06;4900131;29;45323;-84
2022/09/07 04:23:56;;;;;;;;;2.25;1.50;;;;;21.35;58.54;100958.41;4895839;29;45357;-80
2022/09/07 04:26:30;;;;;;;;;3.00;1.75;;;;;21.31;58.38;100956.88;4894441;29;45602;-80
2022/09/07 04:28:55;;;;;;;;;1.00;1.00;;;;;21.25;58.52;100950.06;4882441;29;47359;-80
2022/09/07 04:31:22;;;;;;;;;2.25;2.00;;;;;21.30;58.17;100963.31;4876249;29;45263;-80
2022/09/07 04:33:48;;;;;;;;;2.25;2.00;;;;;21.23;58.19;100960.19;4904265;29;45207;-80
2022/09/07 04:36:16;;;;;;;;;0.00;0.00;;;;;21.27;58.28;100968.97;4892851;29;45689;-80
2022/09/07 04:38:41;;;;;;;;;2.00;2.00;;;;;21.16;58.78;100953.44;4904964;29;46655;-80
2022/09/07 04:41:17;;;;;;;;;3.00;1.00;;;;;21.21;58.94;100961.25;4892413;28;45338;-80
2022/09/07 04:43:44;;;;;;;;;1.25;1.00;;;;;21.21;58.86;100967.53;4904805;29;45475;-83
2022/09/07 04:46:18;;;;;;;;;2.00;2.00;;;;;21.20;58.45;100965.84;4900226;29;45311;-83
2022/09/07 04:48:50;;;;;;;;;1.75;1.25;;;;;21.19;58.35;100968.66;4902577;29;45255;-84
2022/09/07 04:51:19;;;;;;;;;2.75;2.50;;;;;21.19;58.77;100969.50;4901106;29;46372;-84
2022/09/07 04:53:48;;;;;;;;;2.00;2.00;;;;;21.19;58.61;100968.66;4905602;29;45259;-84
2022/09/07 04:56:14;;;;;;;;;3.25;2.00;;;;;21.10;58.84;100951.22;4887663;29;45442;-80
2022/09/07 04:58:39;;;;;;;;;2.00;2.00;;;;;21.13;58.90;100966.38;4904884;29;45490;-80
2022/09/07 05:01:05;;;;;;;;;3.00;2.00;;;;;21.13;58.90;100966.38;4904956;29;45482;-80
2022/09/07 05:03:34;;;;;;;;;2.00;2.00;;;;;21.10;59.04;100970.22;4889032;29;45401;-80
2022/09/07 05:06:01;;;;;;;;;3.00;3.00;;;;;21.01;58.89;100950.00;4905007;29;45304;-80
2022/09/07 05:08:26;;;;;;;;;2.25;2.00;;;;;21.08;58.79;100972.13;4905155;29;46134;-80
2022/09/07 05:10:54;;;;;;;;;3.50;1.00;;;;;21.03;58.62;100958.03;4898142;29;45432;-80
2022/09/07 05:13:19;;;;;;;;;1.00;1.00;;;;;21.00;59.23;100959.16;4903371;29;45252;-80
2022/09/07 05:15:45;;;;;;;;;4.50;3.00;;;;;21.02;59.25;100968.03;4883337;29;45361;-80
2022/09/07 05:18:11;;;;;;;;;1.00;1.00;;;;;20.99;59.11;100953.84;4901208;29;45444;-80
2022/09/07 05:20:37;;;;;;;;;2.75;2.00;;;;;20.95;59.38;100965.88;4885281;29;45495;-80
2022/09/07 05:23:02;;;;;;;;;0.25;0.25;;;;;21.00;59.17;100983.56;4872642;29;45331;-80
2022/09/07 05:25:30;;;;;;;;;2.75;2.00;;;;;21.00;59.30;100982.69;4887177;29;45533;-80
2022/09/07 05:27:55;;;;;;;;;3.50;1.50;;;;;20.99;59.31;100984.53;4886253;29;45486;-80
2022/09/07 05:30:21;;;;;;;;;2.00;1.00;;;;;20.87;58.99;100967.31;4898813;29;45601;-80
2022/09/07 05:32:47;;;;;;;;;3.00;2.25;;;;;20.97;59.20;100989.22;4883094;29;45641;-80
2022/09/07 05:35:13;;;;;;;;;1.50;1.50;;;;;20.94;58.82;100986.72;4895296;29;45196;-80
2022/09/07 05:37:39;;;;;;;;;2.00;2.00;;;;;20.93;59.30;100990.41;4891008;29;46496;-80
2022/09/07 05:40:05;;;;;;;;;3.00;2.00;;;;;20.91;59.35;100981.50;4895090;29;45239;-80
2022/09/07 05:42:30;;;;;;;;;2.75;1.75;;;;;20.89;59.38;100981.63;4872362;29;45339;-80
2022/09/07 05:44:56;;;;;;;;;3.00;2.00;;;;;20.90;59.09;100977.09;4887457;29;45361;-80
2022/09/07 05:47:21;;;;;;;;;1.00;1.00;;;;;20.88;59.44;100976.31;4887559;29;48294;-80
2022/09/07 05:49:47;;;;;;;;;1.00;1.00;;;;;20.84;59.71;100967.53;4904287;29;45402;-80
2022/09/07 05:52:12;;;;;;;;;3.00;1.50;;;;;20.88;59.56;100974.47;4891680;29;45450;-80
2022/09/07 05:54:38;;;;;;;;;4.75;3.00;;;;;20.84;59.30;100967.53;4894674;29;45647;-80
2022/09/07 05:57:03;;;;;;;;;2.75;2.75;;;;;20.90;59.58;100974.38;4902655;29;45503;-77
2022/09/07 05:59:29;;;;;;;;;2.00;1.25;;;;;20.89;59.41;100975.34;4890324;29;46049;-79
2022/09/07 06:01:54;;;;;;;;;2.75;2.50;;;;;20.88;59.44;100974.47;4904029;29;45345;-80
2022/09/07 06:04:19;;;;;;;;;1.25;1.25;;;;;20.86;59.69;100973.69;4894615;29;45405;-80
2022/09/07 06:06:45;;;;;;;;;1.00;1.00;;;;;20.86;59.42;100979.13;4903310;29;46297;-80
2022/09/07 06:09:11;;;;;;;;;2.00;2.00;;;;;20.84;59.91;100977.53;4894472;29;45246;-80
2022/09/07 06:11:37;;;;;;;;;4.50;3.00;;;;;20.90;59.93;100988.78;4900970;29;45435;-80
2022/09/07 06:14:02;;;;;;;;;3.00;3.00;;;;;20.92;59.47;100988.69;4905298;29;45412;-80
2022/09/07 06:16:28;;;;;;;;;3.00;2.00;;;;;20.91;59.64;100985.13;4895095;29;47064;-80
2022/09/07 06:18:53;;;;;;;;;1.00;1.00;;;;;20.92;59.79;100985.97;4905952;29;45310;-80
2022/09/07 06:21:21;;;;;;;;;2.00;2.00;;;;;20.91;59.45;100982.41;4903524;29;45316;-80
2022/09/07 06:23:48;;;;;;;;;3.00;2.00;;;;;20.90;59.87;100974.38;4902807;29;45503;-80
2022/09/07 06:26:15;;;;;;;;;2.50;2.00;;;;;20.92;59.99;100991.41;4903160;29;45435;-80
2022/09/07 06:28:43;;;;;;;;;4.00;1.75;;;;;20.88;59.95;100987.16;4902843;29;45243;-80
2022/09/07 06:31:11;;;;;;;;;1.50;1.50;;;;;20.90;59.85;100988.78;4904298;29;45284;-80
2022/09/07 06:33:37;;;;;;;;;4.25;2.75;;;;;20.93;60.04;100993.13;4889504;29;45527;-80
2022/09/07 06:36:05;;;;;;;;;3.00;1.75;;;;;20.92;59.71;100992.25;4902439;29;46393;-80
2022/09/07 06:38:36;;;;;;;;;4.00;2.00;;;;;20.93;59.68;100995.81;4895447;29;45389;-80
2022/09/07 06:41:03;;;;;;;;;3.75;2.75;;;;;20.91;60.31;100995.97;4882147;29;45354;-80
2022/09/07 06:43:29;;;;;;;;;2.00;2.00;;;;;20.91;60.32;100995.06;4885656;29;45402;-80
2022/09/07 06:45:54;;;;;;;;;2.00;2.00;;;;;20.88;60.04;100987.16;4908586;29;45255;-80
2022/09/07 06:48:20;;;;;;;;;3.00;2.00;;;;;20.88;60.31;100984.44;4902530;28;45394;-80
2022/09/07 06:51:19;;;;;;;;;2.00;1.00;;;;;20.92;60.39;101002.25;4902365;29;45417;-80
2022/09/07 06:53:47;;;;;;;;;4.00;3.00;;;;;20.87;60.18;100991.72;4859586;29;45263;-80
2022/09/07 06:56:14;;;;;;;;;2.00;2.00;;;;;20.95;60.41;100993.91;4900154;29;45998;-79
2022/09/07 06:58:40;;;;;;;;;1.00;1.00;;;;;20.92;60.12;100994.13;4902850;29;45368;-79
2022/09/07 07:01:12;;;;;;;;;2.50;1.00;;;;;20.93;60.38;100998.53;4884735;29;45283;-79
2022/09/07 07:03:38;;;;;;;;;2.75;1.75;;;;;20.94;60.30;100992.16;4887381;29;45451;-79
2022/09/07 07:06:04;;;;;;;;;5.00;2.25;;;;;20.96;60.17;100998.31;4898139;29;48020;-79
2022/09/07 07:08:29;;;;;;;;;3.00;2.50;;;;;20.94;60.35;100986.72;4901658;29;45521;-80
2022/09/07 07:10:59;;;;;;;;;1.75;1.00;;;;;20.95;60.21;100977.63;4903630;29;45275;-79
2022/09/07 07:13:24;;;;;;;;;3.00;2.00;;;;;20.88;60.19;100971.75;4904682;29;45268;-79
2022/09/07 07:15:52;;;;;;;;;2.25;2.25;;;;;20.91;60.58;100976.09;4899970;29;45172;-79
2022/09/07 07:18:18;;;;;;;;;4.00;4.00;;;;;20.93;60.62;100968.69;4898958;29;45302;-79
2022/09/07 07:20:43;;;;;;;;;3.00;3.00;;;;;20.90;60.97;100972.50;4881613;29;45314;-79
2022/09/07 07:23:09;;;;;;;;;3.75;3.00;;;;;20.97;60.43;100978.38;4902081;29;45414;-79
2022/09/07 07:25:35;;;;;;;;;3.50;2.25;;;;;21.02;60.36;100992.47;4900225;29;45352;-81
2022/09/07 07:28:02;;;;;;;;;1.75;1.75;;;;;21.05;60.86;100994.97;4899594;28;46676;-80
2022/09/07 07:30:28;;;;;;;;;3.00;2.00;;;;;21.01;60.42;100979.00;4894948;29;45373;-80
2022/09/07 07:32:54;;;;;;;;;4.75;3.50;;;;;21.05;60.21;100981.41;4899051;29;45335;-80
2022/09/07 07:35:21;;;;;;;;;3.25;1.00;;;;;21.10;60.28;100981.06;4908668;28;46067;-80
2022/09/07 07:37:47;;;;;;;;;4.50;1.50;;;;;21.10;60.77;100981.06;4896426;29;45462;-81
2022/09/07 07:40:13;;;;;;;;;4.50;3.25;;;;;21.13;60.70;100974.53;4897178;29;45453;-80
2022/09/07 07:42:40;;;;;;;;;3.75;3.75;;;;;21.15;60.88;100969.84;4902219;29;45412;-80
2022/09/07 07:45:07;;;;;;;;;3.00;2.00;;;;;21.14;60.93;100963.56;4887050;29;47141;-79
2022/09/07 07:47:34;;;;;;;;;2.50;2.00;;;;;21.20;60.53;100975.81;4902283;28;45426;-79
2022/09/07 07:49:59;;;;;;;;;2.50;2.00;;;;;21.16;60.71;100974.31;4890850;29;45345;-79
2022/09/07 07:52:31;;;;;;;;;2.50;2.00;;;;;21.17;60.79;100984.19;4895768;29;45487;-79
2022/09/07 07:54:57;;;;;;;;;2.25;2.00;;;;;21.07;61.01;100965.00;4891067;29;45533;-79
2022/09/07 07:57:22;;;;;;;;;1.25;1.25;;;;;21.16;61.14;100979.72;4899602;29;45408;-79
2022/09/07 07:59:48;;;;;;;;;3.50;2.00;;;;;21.18;60.70;100972.34;4887240;29;45249;-79
2022/09/07 08:02:15;;;;;;;;;3.50;2.25;;;;;21.21;61.05;100972.97;4894809;29;45344;-79
2022/09/07 08:04:40;;;;;;;;;3.50;3.00;;;;;21.17;61.14;100965.19;4900995;28;45570;-79
2022/09/07 08:07:06;;;;;;;;;7.25;2.50;;;;;21.20;61.10;100965.84;4893300;29;46365;-79
2022/09/07 08:09:31;;;;;;;;;4.00;4.00;;;;;21.22;61.07;100963.00;4898065;29;45313;-79
2022/09/07 08:11:57;;;;;;;;;4.00;2.00;;;;;21.19;61.07;100950.50;4905299;29;45492;-79
2022/09/07 08:14:22;;;;;;;;;6.00;4.00;;;;;21.08;61.29;100926.00;4902535;29;46528;-79
2022/09/07 08:16:47;;;;;;;;;2.50;2.25;;;;;21.30;61.30;100949.75;4901088;29;45710;-79
2022/09/07 08:19:13;;;;;;;;;2.25;2.00;;;;;21.38;61.18;100960.00;4897924;29;45287;-78
2022/09/07 08:21:38;;;;;;;;;4.25;2.00;;;;;21.42;61.12;100969.69;4892018;29;45474;-78
2022/09/07 08:24:03;;;;;;;;;4.75;2.50;;;;;21.44;61.04;100968.56;4908155;29;51878;-78
2022/09/07 08:26:29;;;;;;;;;1.75;1.75;;;;;21.44;61.37;100962.28;4900800;29;45330;-79
2022/09/07 08:28:55;;;;;;;;;4.50;3.00;;;;;21.37;61.09;100953.72;4897514;28;45402;-81
2022/09/07 08:31:21;;;;;;;;;3.75;2.00;;;;;21.41;61.12;100951.63;4901985;29;45553;-83
2022/09/07 08:33:46;;;;;;;;;3.75;2.25;;;;;21.34;61.23;100948.50;4899533;29;45942;-80
2022/09/07 08:36:17;;;;;;;;;3.75;2.75;;;;;21.45;61.56;100969.41;4900769;29;45641;-80
2022/09/07 08:38:42;;;;;;;;;4.25;3.00;;;;;21.40;61.40;100955.31;4905188;29;45346;-82
2022/09/07 08:42:12;;;;;;;;;2.75;2.75;;;;;21.49;61.50;100968.25;4896061;29;45340;-79
2022/09/07 08:44:52;;;;;;;;;10.00;7.50;;;;;21.52;61.86;100965.31;4779906;29;45513;-79
2022/09/07 08:47:24;;;;;;;;;2.00;2.00;;;;;21.59;61.94;100976.59;4792454;29;46102;-79
2022/09/07 08:50:22;;;;;;;;;2.00;2.00;;;;;21.63;61.41;100968.09;4848791;29;45265;-78
2022/09/07 08:52:55;;;;;;;;;4.00;3.00;;;;;21.67;61.53;100970.56;4892463;29;45341;-78
2022/09/07 08:55:30;;;;;;;;;4.50;3.75;;;;;21.70;61.36;100976.66;4897525;28;45544;-80
2022/09/07 08:58:01;;;;;;;;;2.50;2.00;;;;;21.75;62.02;100984.44;4881828;29;45522;-82
2022/09/07 09:00:29;;;;;;;;;5.00;4.00;;;;;21.73;61.26;100979.09;4905495;28;45410;-81
2022/09/07 09:02:57;;;;;;;;;4.75;3.00;;;;;21.78;61.34;100976.06;4898318;29;45435;-81
2022/09/07 09:05:34;;;;;;;;;4.00;4.00;;;;;21.78;61.75;100966.03;4895871;29;47258;-81
2022/09/07 09:08:17;;;;;;;;;3.00;3.00;;;;;21.80;61.00;100955.94;4905178;29;45352;-81
2022/09/07 09:10:54;;;;;;;;;5.00;5.00;;;;;21.82;61.85;100945.81;4909218;28;44846;-81
2022/09/07 09:13:51;;;;;;;;;3.00;2.50;;;;;21.82;61.85;100940.38;4908414;28;45452;-81
2022/09/07 09:16:29;;;;;;;;;4.50;4.00;;;;;21.90;61.46;100937.09;4895511;28;45448;-81
2022/09/07 09:19:22;;;;;;;;;3.50;3.00;;;;;21.95;61.80;100944.88;4874930;29;45210;-81
2022/09/07 09:21:47;;;;;;;;;3.25;3.25;;;;;21.95;61.38;100948.47;4901706;29;45320;-81
2022/09/07 09:24:18;;;;;;;;;3.75;3.25;;;;;21.97;61.48;100948.34;4894367;29;45427;-82
2022/09/07 09:26:55;;;;;;;;;4.00;3.75;;;;;22.01;61.61;100938.97;4884946;29;47999;-82
2022/09/07 09:29:21;;;;;;;;;3.00;3.00;;;;;21.95;61.38;100932.16;4891460;29;45377;-82
2022/09/07 09:31:47;;;;;;;;;3.25;2.25;;;;;22.11;61.17;100952.72;4876570;29;45413;-81
2022/09/07 09:34:16;;;;;;;;;5.00;4.00;;;;;22.14;60.87;100955.19;4900183;28;46413;-81
2022/09/07 09:36:54;;;;;;;;;3.00;1.50;;;;;22.16;61.42;100943.19;4898121;28;47208;-78
2022/09/07 09:39:34;;;;;;;;;3.00;2.00;;;;;22.21;60.80;100946.41;4897808;29;45512;-81
2022/09/07 09:42:22;;;;;;;;;2.00;2.00;;;;;22.23;60.66;100943.59;4878884;29;45432;-82
2022/09/07 09:44:49;;;;;;;;;3.25;3.25;;;;;22.26;60.41;100937.06;4894168;29;46273;-82
2022/09/07 09:47:31;;;;;;;;;1.00;1.00;;;;;22.29;60.31;100942.28;4894520;29;45423;-82
2022/09/07 09:50:05;;;;;;;;;2.00;2.00;;;;;22.34;60.19;100930.06;4906384;29;45422;-82
2022/09/07 09:52:34;;;;;;;;;3.25;3.25;;;;;22.36;60.11;100935.38;4888403;29;45739;-79
2022/09/07 09:55:00;;;;;;;;;2.50;1.75;;;;;22.44;60.45;100945.66;4903982;29;45544;-79
2022/09/07 09:57:46;;;;;;;;;2.25;2.25;;;;;22.45;59.71;100940.06;4896374;29;47497;-79
2022/09/07 10:00:16;;;;;;;;;3.00;2.00;;;;;22.47;59.33;100943.56;4899451;29;45442;-79
2022/09/07 10:02:41;;;;;;;;;4.00;4.00;;;;;22.51;59.69;100930.56;4905696;28;45378;-79
2022/09/07 10:05:27;;;;;;;;;1.25;1.25;;;;;22.52;59.43;100929.56;4889911;29;45383;-79
2022/09/07 10:07:53;;;;;;;;;4.50;3.00;;;;;22.50;59.62;100932.44;4902125;29;45544;-80
2022/09/07 10:10:18;;;;;;;;;5.25;3.50;;;;;22.49;59.26;100916.22;4889750;29;45759;-81
2022/09/07 10:12:45;;;;;;;;;4.00;3.25;;;;;22.55;59.30;100932.94;4900766;29;45448;-80
2022/09/07 10:15:30;;;;;;;;;5.00;2.50;;;;;22.59;59.35;100930.81;4895356;29;45316;-80
2022/09/07 10:17:57;;;;;;;;;4.75;2.25;;;;;22.62;58.83;100927.88;4900804;29;46150;-81
2022/09/07 10:20:34;;;;;;;;;4.00;3.00;;;;;22.63;58.83;100920.56;4896015;29;45430;-81
2022/09/07 10:23:01;;;;;;;;;4.00;3.25;;;;;22.63;59.08;100917.84;4907530;29;45221;-82
2022/09/07 10:25:44;;;;;;;;;5.00;3.50;;;;;22.64;58.77;100917.72;4898377;29;45195;-80
2022/09/07 10:28:10;;;;;;;;;1.50;1.50;;;;;22.66;58.72;100915.72;4900035;29;45395;-80
2022/09/07 10:31:03;;;;;;;;;4.50;2.75;;;;;22.67;58.92;100914.75;4902137;29;45233;-79
2022/09/07 10:33:47;;;;;;;;;5.50;3.25;;;;;22.67;58.66;100911.13;4903098;28;45399;-79
2022/09/07 10:36:39;;;;;;;;;5.00;2.00;;;;;22.63;58.73;100909.66;4898293;28;45801;-80
2022/09/07 10:39:17;;;;;;;;;8.00;5.00;;;;;22.67;58.07;100909.31;4887711;29;47027;-79
2022/09/07 10:41:53;;;;;;;;;2.00;2.00;;;;;22.73;58.29;100911.50;4902378;29;45448;-79
2022/09/07 10:44:37;;;;;;;;;3.75;2.75;;;;;22.76;58.70;100905.81;4899486;29;45334;-81
2022/09/07 10:47:17;;;;;;;;;4.25;2.50;;;;;22.77;58.57;100909.44;4897901;29;45613;-81
2022/09/07 10:49:52;;;;;;;;;1.75;1.00;;;;;22.78;58.33;100918.44;4907632;29;45340;-88
2022/09/07 10:52:31;;;;;;;;;4.00;4.00;;;;;22.80;58.42;100914.59;4902709;29;45466;-81
2022/09/07 10:55:25;;;;;;;;;4.00;3.00;;;;;22.82;58.39;100911.75;4901343;29;45398;-81
2022/09/07 10:58:10;;;;;;;;;4.75;2.00;;;;;22.85;57.81;100920.53;4898193;29;44868;-81
2022/09/07 11:00:56;;;;;;;;;4.25;2.00;;;;;22.87;57.84;100906.81;4851897;29;45361;-81
2022/09/07 11:03:52;;;;;;;;;3.50;3.00;;;;;22.90;57.92;100918.31;4898462;29;45450;-81
2022/09/07 11:06:41;;;;;;;;;4.75;2.00;;;;;22.92;58.06;100907.28;4898147;29;45323;-81
2022/09/07 11:09:33;;;;;;;;;5.00;2.25;;;;;22.94;58.08;100906.19;4903957;29;45510;-81
2022/09/07 11:12:07;;;;;;;;;2.75;1.25;;;;;22.97;57.71;100904.19;4891285;29;45501;-81
2022/09/07 11:14:45;;;;;;;;;3.00;2.75;;;;;22.97;57.66;100883.31;4889383;29;45403;-83
2022/09/07 11:17:53;;;;;;;;;1.75;1.75;;;;;23.01;57.28;100894.81;4887708;29;45379;-81
2022/09/07 11:20:40;;;;;;;;;3.00;2.00;;;;;23.04;56.22;100897.28;4883077;29;45475;-81
2022/09/07 11:23:11;;;;;;;;;2.00;1.50;;;;;23.08;56.10;100901.50;4904485;29;47552;-81
2022/09/07 11:25:53;;;;;;;;;6.50;2.25;;;;;23.06;55.89;100881.66;4890718;29;45289;-81
2022/09/07 11:28:44;;;;;;;;;3.75;2.50;;;;;23.08;55.67;100890.59;4902416;29;45277;-81
2022/09/07 11:31:31;;;;;;;;;1.25;1.25;;;;;23.10;55.03;100885.88;4861140;29;45489;-80
2022/09/07 11:34:17;;;;;;;;;3.00;1.25;;;;;23.10;54.60;100883.16;4875608;29;47869;-81
2022/09/07 11:36:59;;;;;;;;;2.75;1.25;;;;;23.16;55.11;100889.97;4901840;29;45415;-81
2022/09/07 11:39:34;;;;;;;;;1.75;1.25;;;;;23.15;55.09;100880.06;4883794;29;45318;-81
2022/09/07 11:42:12;;;;;;;;;1.25;1.25;;;;;23.14;54.96;100879.22;4900884;29;45307;-81
2022/09/07 11:44:47;;;;;;;;;3.75;1.25;;;;;23.17;55.11;100867.19;4899756;29;45535;-81